Sexton Summit, OR

3:43 PM PST on January 19, 2017 (GMT -0800)
Sexton Summit | | Change Station
Active Advisory: Flood Warning

Elev 3842 ft 42.62 °N, 123.37 °W | Updated 47 minutes ago

Fog
Fog
34 °F
Feels Like 25 °F
N
13
Wind Variable Wind from South
Gusts 20 mph

Today
High -- | Low -- °F
--% Chance of Precip.
Yesterday
High -- | Low -- °F
Precip. -- in
Pressure 29.62 in
Visibility 0.2 miles
Clouds
Windchill 25 °F
Dew Point 33 °F
Humidity 96%
Rainfall 0.51 in
Snow Depth Not available.
7:38 AM 5:10 PM
Waning Gibbous, 49% visible
METAR KSXT 192256Z AUTO 19011G17KT 1/4SM FG VV002 01/01 A2957 RMK AO2 SLP029 T00110006
Pressure 29.62 in
Visibility 0.2 miles
Clouds
Windchill 25 °F
Dew Point 33 °F
Humidity 96%
Rainfall 0.51 in
Snow Depth Not available.
7:38 AM 5:10 PM
Waning Gibbous, 49% visible
METAR KSXT 192256Z AUTO 19011G17KT 1/4SM FG VV002 01/01 A2957 RMK AO2 SLP029 T00110006

Get Your Daily Forecast Email!

Thanks for signing up!

Be on the lookout for a verification email in your inbox.

You'll start receiving the daily forecast at 8 AM.

×

10-Day Weather Forecast

Almanac

Astronomy

Jan. 19, 2017 Rise Set
Actual Time
Civil Twilight
Nautical Twilight
Astronomical Twilight
Moon
Length of Visible Light
Length of Day
Tomorrow will be .
, % of the Moon is Illuminated

Today's Extremes

State Highs State Lows

Community

WunderPhotos

Upload Photos

1,962,540 photos uploaded!

WunderBlog® & News

Nearby

Air Quality

  Air Quality AQ Index Pollutant
Not available.

Snow Depth

Station Depth Elevation

Earthquake Activity

City Distance Mag. Time & Date
Minimum magnitude displayed is 2.5.

Coastal Water Temperatures

Place Temperature

Stations

Nearby Weather Stations

Station Location Temp. Windchill Dew Point Humidity Wind Precip. Elev Updated Type
                   

Watches & Warnings

Flood Warning
Issued: 12:12 PM PST Jan. 19, 2017 – National Weather Service

The Flood Warning continues for
the Rogue River near Agness.
* At 11:30 am Thursday the stage was 18.8 feet.
* Flood stage is 17.0 feet.
* Minor flooding is occurring.
* Forecast... the river will continue to fall to below flood stage by
early this evening.
* Impact... at 17.0 feet... river rises to this stage or above may
affect recreation interests along the Rogue River at and below
Agness, Oregon. Sudden river rises of a few feet may also affect
home and business owners with boat docks on the river.
* Flood history... this crest compares to a previous crest of 17.7 feet
on Dec 14 2015.


Lat... Lon 4274 12390 4246 12442 4237 12442 4261 12385 4274 12375